sensor_id;sensor_type;location;lat;lon;timestamp;P1;durP1;ratioP1;P2;durP2;ratioP2
11241;SDS011;5678;52.370;9.006;2023-02-14T00:01:24;0.50;;;0.50;;
11241;SDS011;5678;52.370;9.006;2023-02-14T00:03:53;0.47;;;0.47;;
11241;SDS011;5678;52.370;9.006;2023-02-14T00:06:26;0.50;;;0.50;;
11241;SDS011;5678;52.370;9.006;2023-02-14T00:08:55;0.60;;;0.60;;
11241;SDS011;5678;52.370;9.006;2023-02-14T00:11:23;0.67;;;0.67;;
11241;SDS011;5678;52.370;9.006;2023-02-14T00:13:51;0.80;;;0.80;;
11241;SDS011;5678;52.370;9.006;2023-02-14T00:16:32;0.60;;;0.60;;
11241;SDS011;5678;52.370;9.006;2023-02-14T00:19:02;0.50;;;0.50;;
11241;SDS011;5678;52.370;9.006;2023-02-14T00:21:30;0.60;;;0.60;;
11241;SDS011;5678;52.370;9.006;2023-02-14T00:24:01;0.70;;;0.70;;
11241;SDS011;5678;52.370;9.006;2023-02-14T00:26:28;0.50;;;0.50;;
11241;SDS011;5678;52.370;9.006;2023-02-14T00:28:56;1.00;;;1.00;;
11241;SDS011;5678;52.370;9.006;2023-02-14T00:31:24;0.80;;;0.80;;
11241;SDS011;5678;52.370;9.006;2023-02-14T00:33:53;0.90;;;0.90;;
11241;SDS011;5678;52.370;9.006;2023-02-14T00:36:22;0.87;;;0.87;;
11241;SDS011;5678;52.370;9.006;2023-02-14T00:38:50;0.90;;;0.90;;
11241;SDS011;5678;52.370;9.006;2023-02-14T00:41:18;0.50;;;0.50;;
11241;SDS011;5678;52.370;9.006;2023-02-14T00:43:46;0.60;;;0.60;;
11241;SDS011;5678;52.370;9.006;2023-02-14T00:46:15;0.60;;;0.60;;
11241;SDS011;5678;52.370;9.006;2023-02-14T00:48:46;0.60;;;0.60;;
11241;SDS011;5678;52.370;9.006;2023-02-14T00:51:14;0.80;;;0.80;;
11241;SDS011;5678;52.370;9.006;2023-02-14T00:53:45;0.60;;;0.60;;
11241;SDS011;5678;52.370;9.006;2023-02-14T00:56:15;0.70;;;0.70;;
11241;SDS011;5678;52.370;9.006;2023-02-14T00:58:44;0.90;;;0.90;;
11241;SDS011;5678;52.370;9.006;2023-02-14T01:01:12;0.83;;;0.83;;
11241;SDS011;5678;52.370;9.006;2023-02-14T01:03:42;1.00;;;1.00;;
11241;SDS011;5678;52.370;9.006;2023-02-14T01:06:10;0.90;;;0.90;;
11241;SDS011;5678;52.370;9.006;2023-02-14T01:08:38;0.43;;;0.43;;
11241;SDS011;5678;52.370;9.006;2023-02-14T01:11:08;0.70;;;0.70;;
11241;SDS011;5678;52.370;9.006;2023-02-14T01:13:38;0.70;;;0.70;;
11241;SDS011;5678;52.370;9.006;2023-02-14T01:16:07;0.70;;;0.70;;
11241;SDS011;5678;52.370;9.006;2023-02-14T01:18:36;0.77;;;0.77;;
11241;SDS011;5678;52.370;9.006;2023-02-14T01:21:09;0.70;;;0.70;;
11241;SDS011;5678;52.370;9.006;2023-02-14T01:23:42;0.80;;;0.80;;
11241;SDS011;5678;52.370;9.006;2023-02-14T01:26:12;0.70;;;0.70;;
11241;SDS011;5678;52.370;9.006;2023-02-14T01:28:40;0.90;;;0.90;;
11241;SDS011;5678;52.370;9.006;2023-02-14T01:31:09;0.70;;;0.70;;
11241;SDS011;5678;52.370;9.006;2023-02-14T01:33:39;0.97;;;0.97;;
11241;SDS011;5678;52.370;9.006;2023-02-14T01:36:13;0.70;;;0.70;;
11241;SDS011;5678;52.370;9.006;2023-02-14T01:38:42;1.13;;;1.13;;
11241;SDS011;5678;52.370;9.006;2023-02-14T01:41:12;0.90;;;0.90;;
11241;SDS011;5678;52.370;9.006;2023-02-14T01:43:50;0.70;;;0.70;;
11241;SDS011;5678;52.370;9.006;2023-02-14T01:46:24;0.70;;;0.70;;
11241;SDS011;5678;52.370;9.006;2023-02-14T01:48:54;0.80;;;0.80;;
11241;SDS011;5678;52.370;9.006;2023-02-14T01:51:27;0.90;;;0.90;;
11241;SDS011;5678;52.370;9.006;2023-02-14T01:53:55;0.50;;;0.50;;
11241;SDS011;5678;52.370;9.006;2023-02-14T01:56:27;0.80;;;0.80;;
11241;SDS011;5678;52.370;9.006;2023-02-14T01:59:01;0.40;;;0.40;;
11241;SDS011;5678;52.370;9.006;2023-02-14T02:01:32;0.70;;;0.70;;
11241;SDS011;5678;52.370;9.006;2023-02-14T02:04:01;0.70;;;0.70;;
11241;SDS011;5678;52.370;9.006;2023-02-14T02:06:34;0.80;;;0.80;;
11241;SDS011;5678;52.370;9.006;2023-02-14T02:09:07;0.70;;;0.70;;
11241;SDS011;5678;52.370;9.006;2023-02-14T02:11:40;0.57;;;0.57;;
11241;SDS011;5678;52.370;9.006;2023-02-14T02:14:11;0.80;;;0.80;;
11241;SDS011;5678;52.370;9.006;2023-02-14T02:26:13;0.80;;;0.80;;
11241;SDS011;5678;52.370;9.006;2023-02-14T02:29:19;0.83;;;0.83;;
11241;SDS011;5678;52.370;9.006;2023-02-14T02:35:12;0.80;;;0.80;;
11241;SDS011;5678;52.370;9.006;2023-02-14T02:37:49;1.00;;;1.00;;
11241;SDS011;5678;52.370;9.006;2023-02-14T02:40:32;0.60;;;0.60;;
11241;SDS011;5678;52.370;9.006;2023-02-14T02:43:10;0.63;;;0.63;;
11241;SDS011;5678;52.370;9.006;2023-02-14T02:45:48;1.10;;;1.10;;
11241;SDS011;5678;52.370;9.006;2023-02-14T02:48:44;0.80;;;0.80;;
11241;SDS011;5678;52.370;9.006;2023-02-14T02:51:19;0.80;;;0.80;;
11241;SDS011;5678;52.370;9.006;2023-02-14T02:54:08;0.80;;;0.80;;
11241;SDS011;5678;52.370;9.006;2023-02-14T02:56:45;0.50;;;0.50;;
11241;SDS011;5678;52.370;9.006;2023-02-14T02:59:19;0.87;;;0.87;;
11241;SDS011;5678;52.370;9.006;2023-02-14T03:01:50;0.77;;;0.77;;
11241;SDS011;5678;52.370;9.006;2023-02-14T03:04:23;0.67;;;0.67;;
11241;SDS011;5678;52.370;9.006;2023-02-14T03:07:12;0.50;;;0.50;;
11241;SDS011;5678;52.370;9.006;2023-02-14T03:09:59;0.90;;;0.90;;
11241;SDS011;5678;52.370;9.006;2023-02-14T03:12:36;0.97;;;0.97;;
11241;SDS011;5678;52.370;9.006;2023-02-14T03:15:29;0.80;;;0.80;;
11241;SDS011;5678;52.370;9.006;2023-02-14T03:18:15;0.80;;;0.80;;
11241;SDS011;5678;52.370;9.006;2023-02-14T03:21:24;0.60;;;0.60;;
11241;SDS011;5678;52.370;9.006;2023-02-14T03:24:04;1.20;;;1.20;;
11241;SDS011;5678;52.370;9.006;2023-02-14T03:26:38;0.70;;;0.70;;
11241;SDS011;5678;52.370;9.006;2023-02-14T03:29:15;0.77;;;0.77;;
11241;SDS011;5678;52.370;9.006;2023-02-14T03:31:55;1.07;;;1.07;;
11241;SDS011;5678;52.370;9.006;2023-02-14T03:34:29;0.80;;;0.80;;
11241;SDS011;5678;52.370;9.006;2023-02-14T03:37:02;0.77;;;0.77;;
11241;SDS011;5678;52.370;9.006;2023-02-14T03:39:38;0.83;;;0.83;;
11241;SDS011;5678;52.370;9.006;2023-02-14T03:42:12;0.60;;;0.60;;
11241;SDS011;5678;52.370;9.006;2023-02-14T03:44:45;0.73;;;0.73;;
11241;SDS011;5678;52.370;9.006;2023-02-14T03:47:15;0.60;;;0.60;;
11241;SDS011;5678;52.370;9.006;2023-02-14T03:49:47;0.50;;;0.50;;
11241;SDS011;5678;52.370;9.006;2023-02-14T03:52:19;0.60;;;0.60;;
11241;SDS011;5678;52.370;9.006;2023-02-14T03:54:49;0.77;;;0.77;;
11241;SDS011;5678;52.370;9.006;2023-02-14T03:57:22;0.87;;;0.87;;
11241;SDS011;5678;52.370;9.006;2023-02-14T03:59:52;0.53;;;0.53;;
11241;SDS011;5678;52.370;9.006;2023-02-14T04:02:23;0.77;;;0.77;;
11241;SDS011;5678;52.370;9.006;2023-02-14T04:04:55;0.73;;;0.73;;
11241;SDS011;5678;52.370;9.006;2023-02-14T04:07:26;0.70;;;0.70;;
11241;SDS011;5678;52.370;9.006;2023-02-14T04:09:55;0.63;;;0.63;;
11241;SDS011;5678;52.370;9.006;2023-02-14T04:12:23;0.70;;;0.70;;
11241;SDS011;5678;52.370;9.006;2023-02-14T04:15:03;0.90;;;0.90;;
11241;SDS011;5678;52.370;9.006;2023-02-14T04:17:31;0.93;;;0.93;;
11241;SDS011;5678;52.370;9.006;2023-02-14T04:20:17;0.77;;;0.77;;
11241;SDS011;5678;52.370;9.006;2023-02-14T04:22:45;0.70;;;0.70;;
11241;SDS011;5678;52.370;9.006;2023-02-14T04:25:14;0.70;;;0.70;;
11241;SDS011;5678;52.370;9.006;2023-02-14T04:27:42;0.60;;;0.60;;
11241;SDS011;5678;52.370;9.006;2023-02-14T04:30:11;0.60;;;0.60;;
11241;SDS011;5678;52.370;9.006;2023-02-14T04:32:43;0.80;;;0.80;;
11241;SDS011;5678;52.370;9.006;2023-02-14T04:35:11;0.87;;;0.87;;
11241;SDS011;5678;52.370;9.006;2023-02-14T04:37:39;0.80;;;0.80;;
11241;SDS011;5678;52.370;9.006;2023-02-14T04:40:07;0.73;;;0.73;;
11241;SDS011;5678;52.370;9.006;2023-02-14T04:42:37;0.70;;;0.70;;
11241;SDS011;5678;52.370;9.006;2023-02-14T04:45:05;0.90;;;0.90;;
11241;SDS011;5678;52.370;9.006;2023-02-14T04:47:33;0.60;;;0.60;;
11241;SDS011;5678;52.370;9.006;2023-02-14T04:50:01;1.00;;;1.00;;
11241;SDS011;5678;52.370;9.006;2023-02-14T04:52:29;0.73;;;0.73;;
11241;SDS011;5678;52.370;9.006;2023-02-14T04:54:57;0.63;;;0.63;;
11241;SDS011;5678;52.370;9.006;2023-02-14T04:57:25;0.80;;;0.80;;
11241;SDS011;5678;52.370;9.006;2023-02-14T04:59:55;0.70;;;0.70;;
11241;SDS011;5678;52.370;9.006;2023-02-14T05:02:23;0.87;;;0.87;;
11241;SDS011;5678;52.370;9.006;2023-02-14T05:04:51;0.80;;;0.80;;
11241;SDS011;5678;52.370;9.006;2023-02-14T05:07:18;0.60;;;0.60;;
11241;SDS011;5678;52.370;9.006;2023-02-14T05:09:46;0.80;;;0.80;;
11241;SDS011;5678;52.370;9.006;2023-02-14T05:12:14;0.87;;;0.87;;
11241;SDS011;5678;52.370;9.006;2023-02-14T05:14:43;1.03;;;1.03;;
11241;SDS011;5678;52.370;9.006;2023-02-14T05:17:12;0.83;;;0.83;;
11241;SDS011;5678;52.370;9.006;2023-02-14T05:19:40;1.27;;;1.27;;
11241;SDS011;5678;52.370;9.006;2023-02-14T05:22:08;0.80;;;0.80;;
11241;SDS011;5678;52.370;9.006;2023-02-14T05:24:36;0.93;;;0.93;;
11241;SDS011;5678;52.370;9.006;2023-02-14T05:27:03;0.67;;;0.67;;
11241;SDS011;5678;52.370;9.006;2023-02-14T05:29:32;0.70;;;0.70;;
11241;SDS011;5678;52.370;9.006;2023-02-14T05:32:00;0.53;;;0.53;;
11241;SDS011;5678;52.370;9.006;2023-02-14T05:34:30;0.97;;;0.97;;
11241;SDS011;5678;52.370;9.006;2023-02-14T05:36:57;1.17;;;1.17;;
11241;SDS011;5678;52.370;9.006;2023-02-14T05:39:27;1.00;;;1.00;;
11241;SDS011;5678;52.370;9.006;2023-02-14T05:41:55;1.00;;;1.00;;
11241;SDS011;5678;52.370;9.006;2023-02-14T05:44:24;0.80;;;0.80;;
11241;SDS011;5678;52.370;9.006;2023-02-14T05:46:52;1.00;;;1.00;;
11241;SDS011;5678;52.370;9.006;2023-02-14T05:49:20;1.10;;;1.10;;
11241;SDS011;5678;52.370;9.006;2023-02-14T05:51:50;1.20;;;1.20;;
11241;SDS011;5678;52.370;9.006;2023-02-14T05:54:17;0.87;;;0.87;;
11241;SDS011;5678;52.370;9.006;2023-02-14T05:56:45;0.80;;;0.80;;
11241;SDS011;5678;52.370;9.006;2023-02-14T05:59:13;0.93;;;0.93;;
11241;SDS011;5678;52.370;9.006;2023-02-14T06:01:41;1.03;;;1.03;;
11241;SDS011;5678;52.370;9.006;2023-02-14T06:04:09;0.83;;;0.83;;
11241;SDS011;5678;52.370;9.006;2023-02-14T06:06:37;0.93;;;0.93;;
11241;SDS011;5678;52.370;9.006;2023-02-14T06:09:06;0.90;;;0.90;;
11241;SDS011;5678;52.370;9.006;2023-02-14T06:11:34;0.93;;;0.93;;
11241;SDS011;5678;52.370;9.006;2023-02-14T06:14:02;1.03;;;1.03;;
11241;SDS011;5678;52.370;9.006;2023-02-14T06:16:30;1.03;;;1.03;;
11241;SDS011;5678;52.370;9.006;2023-02-14T06:18:58;1.10;;;1.10;;
11241;SDS011;5678;52.370;9.006;2023-02-14T06:21:26;1.10;;;1.10;;
11241;SDS011;5678;52.370;9.006;2023-02-14T06:23:54;0.90;;;0.90;;
11241;SDS011;5678;52.370;9.006;2023-02-14T06:26:23;0.93;;;0.93;;
11241;SDS011;5678;52.370;9.006;2023-02-14T06:28:53;0.80;;;0.80;;
11241;SDS011;5678;52.370;9.006;2023-02-14T06:31:21;0.80;;;0.80;;
11241;SDS011;5678;52.370;9.006;2023-02-14T06:33:49;1.20;;;1.20;;
11241;SDS011;5678;52.370;9.006;2023-02-14T06:36:17;1.00;;;1.00;;
11241;SDS011;5678;52.370;9.006;2023-02-14T06:38:45;0.80;;;0.80;;
11241;SDS011;5678;52.370;9.006;2023-02-14T06:41:14;0.60;;;0.60;;
11241;SDS011;5678;52.370;9.006;2023-02-14T06:43:44;0.77;;;0.77;;
11241;SDS011;5678;52.370;9.006;2023-02-14T06:46:14;0.70;;;0.70;;
11241;SDS011;5678;52.370;9.006;2023-02-14T06:48:42;0.63;;;0.63;;
11241;SDS011;5678;52.370;9.006;2023-02-14T06:51:10;0.70;;;0.70;;
11241;SDS011;5678;52.370;9.006;2023-02-14T06:53:38;0.80;;;0.80;;
11241;SDS011;5678;52.370;9.006;2023-02-14T06:56:06;1.00;;;1.00;;
11241;SDS011;5678;52.370;9.006;2023-02-14T06:58:34;1.10;;;1.10;;
11241;SDS011;5678;52.370;9.006;2023-02-14T07:01:04;1.00;;;1.00;;
11241;SDS011;5678;52.370;9.006;2023-02-14T07:03:32;1.10;;;1.10;;
11241;SDS011;5678;52.370;9.006;2023-02-14T07:06:00;0.90;;;0.90;;
11241;SDS011;5678;52.370;9.006;2023-02-14T07:08:27;0.90;;;0.90;;
11241;SDS011;5678;52.370;9.006;2023-02-14T07:10:55;1.30;;;1.30;;
11241;SDS011;5678;52.370;9.006;2023-02-14T07:13:24;0.67;;;0.67;;
11241;SDS011;5678;52.370;9.006;2023-02-14T07:15:52;0.80;;;0.80;;
11241;SDS011;5678;52.370;9.006;2023-02-14T07:18:21;1.00;;;1.00;;
11241;SDS011;5678;52.370;9.006;2023-02-14T07:20:50;0.70;;;0.70;;
11241;SDS011;5678;52.370;9.006;2023-02-14T07:23:18;0.93;;;0.93;;
11241;SDS011;5678;52.370;9.006;2023-02-14T07:25:46;0.90;;;0.90;;
11241;SDS011;5678;52.370;9.006;2023-02-14T07:28:14;0.50;;;0.50;;
11241;SDS011;5678;52.370;9.006;2023-02-14T07:30:42;0.77;;;0.77;;
11241;SDS011;5678;52.370;9.006;2023-02-14T07:33:09;0.80;;;0.80;;
11241;SDS011;5678;52.370;9.006;2023-02-14T07:35:39;0.57;;;0.57;;
11241;SDS011;5678;52.370;9.006;2023-02-14T07:38:07;0.80;;;0.80;;
11241;SDS011;5678;52.370;9.006;2023-02-14T07:40:35;0.50;;;0.50;;
11241;SDS011;5678;52.370;9.006;2023-02-14T07:43:02;0.83;;;0.83;;
11241;SDS011;5678;52.370;9.006;2023-02-14T07:45:30;1.00;;;1.00;;
11241;SDS011;5678;52.370;9.006;2023-02-14T07:47:58;0.97;;;0.97;;
11241;SDS011;5678;52.370;9.006;2023-02-14T07:50:27;0.70;;;0.70;;
11241;SDS011;5678;52.370;9.006;2023-02-14T07:52:57;0.87;;;0.87;;
11241;SDS011;5678;52.370;9.006;2023-02-14T07:55:24;0.77;;;0.77;;
11241;SDS011;5678;52.370;9.006;2023-02-14T07:57:52;0.63;;;0.63;;
11241;SDS011;5678;52.370;9.006;2023-02-14T08:00:21;1.10;;;1.10;;
11241;SDS011;5678;52.370;9.006;2023-02-14T08:02:49;0.87;;;0.87;;
11241;SDS011;5678;52.370;9.006;2023-02-14T08:05:17;0.90;;;0.90;;
11241;SDS011;5678;52.370;9.006;2023-02-14T08:07:45;0.70;;;0.70;;
11241;SDS011;5678;52.370;9.006;2023-02-14T08:10:14;0.60;;;0.60;;
11241;SDS011;5678;52.370;9.006;2023-02-14T08:12:43;0.70;;;0.70;;
11241;SDS011;5678;52.370;9.006;2023-02-14T08:15:26;0.77;;;0.77;;
11241;SDS011;5678;52.370;9.006;2023-02-14T08:18:13;0.60;;;0.60;;
11241;SDS011;5678;52.370;9.006;2023-02-14T08:20:42;0.80;;;0.80;;
11241;SDS011;5678;52.370;9.006;2023-02-14T08:23:11;0.90;;;0.90;;
11241;SDS011;5678;52.370;9.006;2023-02-14T08:25:40;0.63;;;0.63;;
11241;SDS011;5678;52.370;9.006;2023-02-14T08:28:08;0.70;;;0.70;;
11241;SDS011;5678;52.370;9.006;2023-02-14T08:30:36;0.67;;;0.67;;
11241;SDS011;5678;52.370;9.006;2023-02-14T08:33:04;0.60;;;0.60;;
11241;SDS011;5678;52.370;9.006;2023-02-14T08:35:33;0.63;;;0.63;;
11241;SDS011;5678;52.370;9.006;2023-02-14T08:38:01;0.40;;;0.40;;
11241;SDS011;5678;52.370;9.006;2023-02-14T08:40:29;0.60;;;0.60;;
11241;SDS011;5678;52.370;9.006;2023-02-14T08:42:59;0.40;;;0.40;;
11241;SDS011;5678;52.370;9.006;2023-02-14T08:45:27;0.40;;;0.40;;
11241;SDS011;5678;52.370;9.006;2023-02-14T08:47:59;0.40;;;0.40;;
11241;SDS011;5678;52.370;9.006;2023-02-14T08:50:28;0.70;;;0.70;;
11241;SDS011;5678;52.370;9.006;2023-02-14T08:52:56;0.53;;;0.53;;
11241;SDS011;5678;52.370;9.006;2023-02-14T08:55:24;0.60;;;0.60;;
11241;SDS011;5678;52.370;9.006;2023-02-14T08:57:53;0.30;;;0.30;;
11241;SDS011;5678;52.370;9.006;2023-02-14T09:00:24;0.30;;;0.30;;
11241;SDS011;5678;52.370;9.006;2023-02-14T09:02:52;0.30;;;0.30;;
11241;SDS011;5678;52.370;9.006;2023-02-14T09:05:20;0.40;;;0.40;;
11241;SDS011;5678;52.370;9.006;2023-02-14T09:07:48;0.50;;;0.50;;
11241;SDS011;5678;52.370;9.006;2023-02-14T09:10:17;0.30;;;0.30;;
11241;SDS011;5678;52.370;9.006;2023-02-14T09:12:45;0.40;;;0.40;;
11241;SDS011;5678;52.370;9.006;2023-02-14T09:15:19;0.40;;;0.40;;
11241;SDS011;5678;52.370;9.006;2023-02-14T09:17:49;0.30;;;0.30;;
11241;SDS011;5678;52.370;9.006;2023-02-14T09:20:17;0.43;;;0.43;;
11241;SDS011;5678;52.370;9.006;2023-02-14T09:22:45;0.30;;;0.30;;
11241;SDS011;5678;52.370;9.006;2023-02-14T09:25:14;0.30;;;0.30;;
11241;SDS011;5678;52.370;9.006;2023-02-14T09:27:42;0.33;;;0.33;;
11241;SDS011;5678;52.370;9.006;2023-02-14T09:30:10;0.27;;;0.27;;
11241;SDS011;5678;52.370;9.006;2023-02-14T09:32:39;0.30;;;0.30;;
11241;SDS011;5678;52.370;9.006;2023-02-14T09:35:09;0.40;;;0.40;;
11241;SDS011;5678;52.370;9.006;2023-02-14T09:37:36;0.23;;;0.23;;
11241;SDS011;5678;52.370;9.006;2023-02-14T09:40:05;0.40;;;0.40;;
11241;SDS011;5678;52.370;9.006;2023-02-14T09:42:39;0.40;;;0.40;;
11241;SDS011;5678;52.370;9.006;2023-02-14T09:45:16;0.30;;;0.30;;
11241;SDS011;5678;52.370;9.006;2023-02-14T09:47:48;0.40;;;0.40;;
11241;SDS011;5678;52.370;9.006;2023-02-14T09:50:24;0.57;;;0.57;;
11241;SDS011;5678;52.370;9.006;2023-02-14T09:53:00;0.40;;;0.40;;
11241;SDS011;5678;52.370;9.006;2023-02-14T09:55:30;0.40;;;0.40;;
11241;SDS011;5678;52.370;9.006;2023-02-14T09:58:05;0.50;;;0.50;;
11241;SDS011;5678;52.370;9.006;2023-02-14T10:00:41;0.50;;;0.50;;
11241;SDS011;5678;52.370;9.006;2023-02-14T10:03:20;0.40;;;0.40;;
11241;SDS011;5678;52.370;9.006;2023-02-14T10:06:19;0.40;;;0.40;;
11241;SDS011;5678;52.370;9.006;2023-02-14T10:08:59;0.40;;;0.40;;
11241;SDS011;5678;52.370;9.006;2023-02-14T10:11:32;0.40;;;0.40;;
11241;SDS011;5678;52.370;9.006;2023-02-14T10:14:03;0.40;;;0.40;;
11241;SDS011;5678;52.370;9.006;2023-02-14T10:16:36;0.40;;;0.40;;
11241;SDS011;5678;52.370;9.006;2023-02-14T10:19:13;0.37;;;0.37;;
11241;SDS011;5678;52.370;9.006;2023-02-14T10:21:49;0.40;;;0.40;;
11241;SDS011;5678;52.370;9.006;2023-02-14T10:24:22;0.30;;;0.30;;
11241;SDS011;5678;52.370;9.006;2023-02-14T10:26:54;0.40;;;0.40;;
11241;SDS011;5678;52.370;9.006;2023-02-14T10:29:27;0.30;;;0.30;;
11241;SDS011;5678;52.370;9.006;2023-02-14T10:31:56;0.40;;;0.40;;
11241;SDS011;5678;52.370;9.006;2023-02-14T10:34:28;0.40;;;0.40;;
11241;SDS011;5678;52.370;9.006;2023-02-14T10:37:10;0.40;;;0.40;;
11241;SDS011;5678;52.370;9.006;2023-02-14T10:40:03;0.60;;;0.60;;
11241;SDS011;5678;52.370;9.006;2023-02-14T10:42:44;0.40;;;0.40;;
11241;SDS011;5678;52.370;9.006;2023-02-14T10:45:20;0.20;;;0.20;;
11241;SDS011;5678;52.370;9.006;2023-02-14T10:47:55;0.27;;;0.27;;
11241;SDS011;5678;52.370;9.006;2023-02-14T10:50:28;0.37;;;0.37;;
11241;SDS011;5678;52.370;9.006;2023-02-14T10:53:05;0.30;;;0.30;;
11241;SDS011;5678;52.370;9.006;2023-02-14T10:55:40;0.30;;;0.30;;
11241;SDS011;5678;52.370;9.006;2023-02-14T10:58:14;0.30;;;0.30;;
11241;SDS011;5678;52.370;9.006;2023-02-14T11:00:53;0.30;;;0.30;;
11241;SDS011;5678;52.370;9.006;2023-02-14T11:03:27;0.30;;;0.30;;
11241;SDS011;5678;52.370;9.006;2023-02-14T11:05:55;0.40;;;0.40;;
11241;SDS011;5678;52.370;9.006;2023-02-14T11:08:25;0.40;;;0.40;;
11241;SDS011;5678;52.370;9.006;2023-02-14T11:10:57;0.30;;;0.30;;
11241;SDS011;5678;52.370;9.006;2023-02-14T11:13:33;0.30;;;0.30;;
11241;SDS011;5678;52.370;9.006;2023-02-14T11:16:02;0.20;;;0.20;;
11241;SDS011;5678;52.370;9.006;2023-02-14T11:18:32;0.30;;;0.30;;
11241;SDS011;5678;52.370;9.006;2023-02-14T11:21:02;0.30;;;0.30;;
11241;SDS011;5678;52.370;9.006;2023-02-14T11:23:38;0.20;;;0.20;;
11241;SDS011;5678;52.370;9.006;2023-02-14T11:26:09;0.30;;;0.30;;
11241;SDS011;5678;52.370;9.006;2023-02-14T11:28:47;0.30;;;0.30;;
11241;SDS011;5678;52.370;9.006;2023-02-14T11:31:27;0.30;;;0.30;;
11241;SDS011;5678;52.370;9.006;2023-02-14T11:33:57;0.20;;;0.20;;
11241;SDS011;5678;52.370;9.006;2023-02-14T11:36:30;0.33;;;0.33;;
11241;SDS011;5678;52.370;9.006;2023-02-14T11:39:04;0.30;;;0.30;;
11241;SDS011;5678;52.370;9.006;2023-02-14T11:41:46;0.30;;;0.30;;
11241;SDS011;5678;52.370;9.006;2023-02-14T11:44:17;0.20;;;0.20;;
11241;SDS011;5678;52.370;9.006;2023-02-14T11:46:48;0.20;;;0.20;;
11241;SDS011;5678;52.370;9.006;2023-02-14T11:49:23;0.20;;;0.20;;
11241;SDS011;5678;52.370;9.006;2023-02-14T11:51:57;0.20;;;0.20;;
11241;SDS011;5678;52.370;9.006;2023-02-14T11:54:29;0.30;;;0.30;;
11241;SDS011;5678;52.370;9.006;2023-02-14T11:57:01;0.27;;;0.27;;
11241;SDS011;5678;52.370;9.006;2023-02-14T11:59:34;0.30;;;0.30;;
11241;SDS011;5678;52.370;9.006;2023-02-14T12:02:16;0.30;;;0.30;;
11241;SDS011;5678;52.370;9.006;2023-02-14T12:04:54;0.30;;;0.30;;
11241;SDS011;5678;52.370;9.006;2023-02-14T12:07:25;0.30;;;0.30;;
11241;SDS011;5678;52.370;9.006;2023-02-14T12:12:49;0.20;;;0.20;;
11241;SDS011;5678;52.370;9.006;2023-02-14T12:15:22;0.40;;;0.40;;
11241;SDS011;5678;52.370;9.006;2023-02-14T12:17:57;0.40;;;0.40;;
11241;SDS011;5678;52.370;9.006;2023-02-14T12:20:37;0.30;;;0.30;;
11241;SDS011;5678;52.370;9.006;2023-02-14T12:23:09;0.20;;;0.20;;
11241;SDS011;5678;52.370;9.006;2023-02-14T12:25:47;0.30;;;0.30;;
11241;SDS011;5678;52.370;9.006;2023-02-14T12:28:21;0.30;;;0.30;;
11241;SDS011;5678;52.370;9.006;2023-02-14T12:30:56;0.30;;;0.30;;
11241;SDS011;5678;52.370;9.006;2023-02-14T12:33:25;0.40;;;0.40;;
11241;SDS011;5678;52.370;9.006;2023-02-14T12:35:54;0.40;;;0.40;;
11241;SDS011;5678;52.370;9.006;2023-02-14T12:38:33;0.30;;;0.30;;
11241;SDS011;5678;52.370;9.006;2023-02-14T12:41:16;0.40;;;0.40;;
11241;SDS011;5678;52.370;9.006;2023-02-14T12:43:56;0.30;;;0.30;;
11241;SDS011;5678;52.370;9.006;2023-02-14T12:46:40;0.37;;;0.37;;
11241;SDS011;5678;52.370;9.006;2023-02-14T12:49:31;0.30;;;0.30;;
11241;SDS011;5678;52.370;9.006;2023-02-14T12:52:23;0.30;;;0.30;;
11241;SDS011;5678;52.370;9.006;2023-02-14T12:55:17;0.50;;;0.50;;
11241;SDS011;5678;52.370;9.006;2023-02-14T12:57:58;0.37;;;0.37;;
11241;SDS011;5678;52.370;9.006;2023-02-14T13:00:33;0.23;;;0.23;;
11241;SDS011;5678;52.370;9.006;2023-02-14T13:06:06;0.20;;;0.20;;
11241;SDS011;5678;52.370;9.006;2023-02-14T13:08:44;0.30;;;0.30;;
11241;SDS011;5678;52.370;9.006;2023-02-14T13:11:30;0.30;;;0.30;;
11241;SDS011;5678;52.370;9.006;2023-02-14T13:14:05;0.30;;;0.30;;
11241;SDS011;5678;52.370;9.006;2023-02-14T13:16:43;0.30;;;0.30;;
11241;SDS011;5678;52.370;9.006;2023-02-14T13:19:23;0.30;;;0.30;;
11241;SDS011;5678;52.370;9.006;2023-02-14T13:21:58;0.30;;;0.30;;
11241;SDS011;5678;52.370;9.006;2023-02-14T13:24:30;0.30;;;0.30;;
11241;SDS011;5678;52.370;9.006;2023-02-14T13:27:01;0.30;;;0.30;;
11241;SDS011;5678;52.370;9.006;2023-02-14T13:29:35;0.30;;;0.30;;
11241;SDS011;5678;52.370;9.006;2023-02-14T13:32:09;0.40;;;0.40;;
11241;SDS011;5678;52.370;9.006;2023-02-14T13:34:42;0.30;;;0.30;;
11241;SDS011;5678;52.370;9.006;2023-02-14T13:37:13;0.30;;;0.30;;
11241;SDS011;5678;52.370;9.006;2023-02-14T13:39:44;0.33;;;0.33;;
11241;SDS011;5678;52.370;9.006;2023-02-14T13:45:50;0.30;;;0.30;;
11241;SDS011;5678;52.370;9.006;2023-02-14T13:48:22;0.20;;;0.20;;
11241;SDS011;5678;52.370;9.006;2023-02-14T13:50:52;0.30;;;0.30;;
11241;SDS011;5678;52.370;9.006;2023-02-14T13:53:29;0.20;;;0.20;;
11241;SDS011;5678;52.370;9.006;2023-02-14T13:56:00;0.40;;;0.40;;
11241;SDS011;5678;52.370;9.006;2023-02-14T13:58:31;0.30;;;0.30;;
11241;SDS011;5678;52.370;9.006;2023-02-14T14:01:01;0.40;;;0.40;;
11241;SDS011;5678;52.370;9.006;2023-02-14T14:03:57;0.30;;;0.30;;
11241;SDS011;5678;52.370;9.006;2023-02-14T14:06:27;0.20;;;0.20;;
11241;SDS011;5678;52.370;9.006;2023-02-14T14:08:55;0.30;;;0.30;;
11241;SDS011;5678;52.370;9.006;2023-02-14T14:14:29;0.30;;;0.30;;
11241;SDS011;5678;52.370;9.006;2023-02-14T14:17:04;0.30;;;0.30;;
11241;SDS011;5678;52.370;9.006;2023-02-14T14:19:51;0.20;;;0.20;;
11241;SDS011;5678;52.370;9.006;2023-02-14T14:22:19;0.40;;;0.40;;
11241;SDS011;5678;52.370;9.006;2023-02-14T14:24:51;0.30;;;0.30;;
11241;SDS011;5678;52.370;9.006;2023-02-14T14:27:23;0.40;;;0.40;;
11241;SDS011;5678;52.370;9.006;2023-02-14T14:29:53;0.20;;;0.20;;
11241;SDS011;5678;52.370;9.006;2023-02-14T14:32:26;0.30;;;0.30;;
11241;SDS011;5678;52.370;9.006;2023-02-14T14:34:56;0.30;;;0.30;;
11241;SDS011;5678;52.370;9.006;2023-02-14T14:37:26;0.20;;;0.20;;
11241;SDS011;5678;52.370;9.006;2023-02-14T14:39:56;0.27;;;0.27;;
11241;SDS011;5678;52.370;9.006;2023-02-14T14:42:26;0.20;;;0.20;;
11241;SDS011;5678;52.370;9.006;2023-02-14T14:44:57;0.30;;;0.30;;
11241;SDS011;5678;52.370;9.006;2023-02-14T14:47:30;0.30;;;0.30;;
11241;SDS011;5678;52.370;9.006;2023-02-14T14:50:05;0.20;;;0.20;;
11241;SDS011;5678;52.370;9.006;2023-02-14T14:52:37;0.30;;;0.30;;
11241;SDS011;5678;52.370;9.006;2023-02-14T14:55:13;0.30;;;0.30;;
11241;SDS011;5678;52.370;9.006;2023-02-14T14:57:47;0.23;;;0.23;;
11241;SDS011;5678;52.370;9.006;2023-02-14T15:00:18;0.20;;;0.20;;
11241;SDS011;5678;52.370;9.006;2023-02-14T15:02:57;0.20;;;0.20;;
11241;SDS011;5678;52.370;9.006;2023-02-14T15:05:43;0.20;;;0.20;;
11241;SDS011;5678;52.370;9.006;2023-02-14T15:08:12;0.30;;;0.30;;
11241;SDS011;5678;52.370;9.006;2023-02-14T15:10:48;0.30;;;0.30;;
11241;SDS011;5678;52.370;9.006;2023-02-14T15:13:19;0.30;;;0.30;;
11241;SDS011;5678;52.370;9.006;2023-02-14T15:16:14;0.20;;;0.20;;
11241;SDS011;5678;52.370;9.006;2023-02-14T15:18:45;0.30;;;0.30;;
11241;SDS011;5678;52.370;9.006;2023-02-14T15:21:14;0.20;;;0.20;;
11241;SDS011;5678;52.370;9.006;2023-02-14T15:23:42;0.40;;;0.40;;
11241;SDS011;5678;52.370;9.006;2023-02-14T15:26:14;0.20;;;0.20;;
11241;SDS011;5678;52.370;9.006;2023-02-14T15:28:44;0.23;;;0.23;;
11241;SDS011;5678;52.370;9.006;2023-02-14T15:31:21;0.30;;;0.30;;
11241;SDS011;5678;52.370;9.006;2023-02-14T15:33:50;0.30;;;0.30;;
11241;SDS011;5678;52.370;9.006;2023-02-14T15:36:19;0.20;;;0.20;;
11241;SDS011;5678;52.370;9.006;2023-02-14T15:38:52;0.37;;;0.37;;
11241;SDS011;5678;52.370;9.006;2023-02-14T15:41:22;0.20;;;0.20;;
11241;SDS011;5678;52.370;9.006;2023-02-14T15:43:52;0.30;;;0.30;;
11241;SDS011;5678;52.370;9.006;2023-02-14T15:46:26;0.37;;;0.37;;
11241;SDS011;5678;52.370;9.006;2023-02-14T15:49:00;0.30;;;0.30;;
11241;SDS011;5678;52.370;9.006;2023-02-14T15:51:34;0.37;;;0.37;;
11241;SDS011;5678;52.370;9.006;2023-02-14T15:54:03;0.30;;;0.30;;
11241;SDS011;5678;52.370;9.006;2023-02-14T15:56:34;0.30;;;0.30;;